Broadmoor, Illinois
Current Conditions -  °F | °C
As of 8:55 PM on Monday 20 Oct 2014 (Local Time) from KC75 Reporting Station
Clear Clear  
Wind Chill: 47°   Ceiling: Unl
Heat Index: 47°   Visibility: 10mi
Dew Point: 42°   Wind: 0mph
Humidity: 85%   Direction: NA
Pressure: 29.98"   Gusts: NA
Location:  41.1472°N, 89.6399°W
Report Text: KC75 210155Z AUTO 00000KT 10SM CLR 08/06 A2998 RMK AO2 T00820058
Loading
Personal Weather Stations






























Interactive Weather Map New forecast layout! Learn more

10-Day Weather Forecast

Advertisements
Track Severe Weather on mobile